createdAt,value
2017-10-28T00:00:20.791Z,4.13
2017-10-28T00:02:49.103Z,2.57
2017-10-28T00:05:17.469Z,3.77
2017-10-28T00:07:45.824Z,1.90
2017-10-28T00:10:14.122Z,3.67
2017-10-28T00:12:42.419Z,1.70
2017-10-28T00:15:10.724Z,7.07
2017-10-28T00:17:39.160Z,3.40
2017-10-28T00:20:07.715Z,3.30
2017-10-28T00:22:36.055Z,3.63
2017-10-28T00:25:04.552Z,4.53
2017-10-28T00:27:33.661Z,1.90
2017-10-28T00:30:06.113Z,3.13
2017-10-28T00:34:43.043Z,3.30
2017-10-28T00:37:11.392Z,6.20
2017-10-28T00:39:39.720Z,6.30
2017-10-28T00:42:08.218Z,2.80
2017-10-28T00:44:37.112Z,2.60
2017-10-28T00:47:06.405Z,2.03
2017-10-28T00:49:34.729Z,3.97
2017-10-28T00:52:03.102Z,2.70
2017-10-28T00:54:31.520Z,2.57
2017-10-28T00:57:00.162Z,2.80
2017-10-28T00:59:28.615Z,2.40
2017-10-28T01:01:57.080Z,3.50
2017-10-28T01:04:25.611Z,5.30
2017-10-28T01:06:53.936Z,2.70
2017-10-28T01:09:22.243Z,1.47
2017-10-28T01:11:50.591Z,5.60
2017-10-28T01:14:19.056Z,4.43
2017-10-28T01:16:47.360Z,2.10
2017-10-28T01:19:15.806Z,5.00
2017-10-28T01:21:44.145Z,2.60
2017-10-28T01:24:12.509Z,4.73
2017-10-28T01:26:40.889Z,4.00
2017-10-28T01:29:09.245Z,7.87
2017-10-28T01:31:37.648Z,1.47
2017-10-28T01:34:06.107Z,4.20
2017-10-28T01:36:35.628Z,1.80
2017-10-28T01:39:04.026Z,2.43
2017-10-28T01:41:32.371Z,2.67
2017-10-28T01:44:00.677Z,3.23
2017-10-28T01:46:29.128Z,2.80
2017-10-28T01:48:57.583Z,1.70
2017-10-28T01:51:25.903Z,3.60
2017-10-28T01:53:54.215Z,1.97
2017-10-28T01:56:22.676Z,3.30
2017-10-28T01:58:51.125Z,4.57
2017-10-28T02:01:19.618Z,4.17
2017-10-28T02:03:48.027Z,1.63
2017-10-28T02:06:16.755Z,5.60
2017-10-28T02:08:45.103Z,2.43
2017-10-28T02:11:13.467Z,3.33
2017-10-28T02:13:41.811Z,3.33
2017-10-28T02:16:10.810Z,2.83
2017-10-28T02:18:39.739Z,4.70
2017-10-28T02:21:08.067Z,5.30
2017-10-28T02:23:36.552Z,2.43
2017-10-28T02:26:04.896Z,3.57
2017-10-28T02:28:33.314Z,5.10
2017-10-28T02:31:02.007Z,1.80
2017-10-28T02:33:30.491Z,8.07
2017-10-28T02:35:59.371Z,4.70
2017-10-28T02:38:27.735Z,6.83
2017-10-28T02:40:56.443Z,2.30
2017-10-28T02:43:24.811Z,3.50
2017-10-28T02:45:53.286Z,3.20
2017-10-28T02:48:21.755Z,3.60
2017-10-28T02:50:50.241Z,4.60
2017-10-28T02:53:18.731Z,1.90
2017-10-28T02:55:47.096Z,3.07
2017-10-28T02:58:15.486Z,4.13
2017-10-28T03:00:44.062Z,2.17
2017-10-28T03:03:12.608Z,2.67
2017-10-28T03:05:41.056Z,1.70
2017-10-28T03:08:09.375Z,7.50
2017-10-28T03:10:37.708Z,2.10
2017-10-28T03:13:06.028Z,1.63
2017-10-28T03:15:34.384Z,1.87
2017-10-28T03:18:02.888Z,3.63
2017-10-28T03:20:31.196Z,3.83
2017-10-28T03:22:59.492Z,2.50
2017-10-28T03:25:27.843Z,3.10
2017-10-28T03:27:56.189Z,2.57
2017-10-28T03:30:24.521Z,2.77
2017-10-28T03:32:52.868Z,2.87
2017-10-28T03:35:21.217Z,2.43
2017-10-28T03:37:49.723Z,2.20
2017-10-28T03:40:18.168Z,2.60
2017-10-28T03:42:46.803Z,2.10
2017-10-28T03:45:15.149Z,2.77
2017-10-28T03:47:43.463Z,1.53
2017-10-28T03:50:11.784Z,2.30
2017-10-28T03:52:40.199Z,2.67
2017-10-28T03:55:08.503Z,4.23
2017-10-28T03:57:36.761Z,2.60
2017-10-28T04:00:09.390Z,3.83
2017-10-28T04:02:37.717Z,2.33
2017-10-28T04:05:06.059Z,4.73
2017-10-28T04:07:34.462Z,3.70
2017-10-28T04:10:02.852Z,1.47
2017-10-28T04:12:31.526Z,1.63
2017-10-28T04:14:59.846Z,1.80
2017-10-28T04:17:28.230Z,1.50
2017-10-28T04:19:56.559Z,3.87
2017-10-28T04:22:24.890Z,3.70
2017-10-28T04:24:53.315Z,1.73
2017-10-28T04:27:21.632Z,3.60
2017-10-28T04:29:50.032Z,4.00
2017-10-28T04:32:19.018Z,2.20
2017-10-28T04:34:47.288Z,4.07
2017-10-28T04:37:15.764Z,3.43
2017-10-28T04:39:44.020Z,2.10
2017-10-28T04:42:12.440Z,2.33
2017-10-28T04:44:40.764Z,2.50
2017-10-28T04:47:09.549Z,3.57
2017-10-28T04:49:37.816Z,2.67
2017-10-28T04:52:06.212Z,4.30
2017-10-28T04:54:34.508Z,8.33
2017-10-28T04:57:02.993Z,1.90
2017-10-28T04:59:31.420Z,3.53
2017-10-28T05:01:59.746Z,1.67
2017-10-28T05:04:28.937Z,3.90
2017-10-28T05:06:58.262Z,2.50
2017-10-28T05:09:26.668Z,3.60
2017-10-28T05:11:55.295Z,3.03
2017-10-28T05:14:23.764Z,2.93
2017-10-28T05:16:52.141Z,15.77
2017-10-28T05:19:20.532Z,3.33
2017-10-28T05:21:49.117Z,4.73
2017-10-28T05:24:17.692Z,2.63
2017-10-28T05:26:46.121Z,6.10
2017-10-28T05:29:15.198Z,4.20
2017-10-28T05:31:43.652Z,10.17
2017-10-28T05:34:11.950Z,3.37
2017-10-28T05:36:40.277Z,2.90
2017-10-28T05:39:08.651Z,6.73
2017-10-28T05:41:36.959Z,5.03
2017-10-28T05:44:05.400Z,3.90
2017-10-28T05:46:33.719Z,6.03
2017-10-28T05:49:02.040Z,14.70
2017-10-28T05:51:30.388Z,7.17
2017-10-28T05:53:58.675Z,11.90
2017-10-28T05:56:26.989Z,9.60
2017-10-28T05:58:55.276Z,9.57
2017-10-28T06:01:23.600Z,6.33
2017-10-28T06:03:51.902Z,9.80
2017-10-28T06:06:20.216Z,14.57
2017-10-28T06:08:48.516Z,12.73
2017-10-28T06:11:16.889Z,14.07
2017-10-28T06:13:45.371Z,8.90
2017-10-28T06:16:15.492Z,12.13
2017-10-28T06:18:44.685Z,6.17
2017-10-28T06:21:13.039Z,8.13
2017-10-28T06:23:41.863Z,17.17
2017-10-28T06:26:11.489Z,10.13
2017-10-28T06:28:40.966Z,18.63
2017-10-28T06:31:09.424Z,6.40
2017-10-28T06:33:37.896Z,10.03
2017-10-28T06:36:06.572Z,7.77
2017-10-28T06:38:35.115Z,15.63
2017-10-28T06:41:05.638Z,15.70
2017-10-28T06:43:34.256Z,19.13
2017-10-28T06:46:03.751Z,9.77
2017-10-28T06:48:32.956Z,10.70
2017-10-28T06:51:01.809Z,12.37
2017-10-28T06:53:30.272Z,7.30
2017-10-28T06:55:58.668Z,11.50
2017-10-28T06:58:27.120Z,5.40
2017-10-28T07:00:55.615Z,8.77
2017-10-28T07:03:24.096Z,12.90
2017-10-28T07:05:52.610Z,12.03
2017-10-28T07:08:21.027Z,14.93
2017-10-28T07:10:49.560Z,10.73
2017-10-28T07:13:17.980Z,8.63
2017-10-28T07:15:46.271Z,18.83
2017-10-28T07:18:14.598Z,11.07
2017-10-28T07:20:42.976Z,11.30
2017-10-28T07:23:11.411Z,11.43
2017-10-28T07:25:39.790Z,15.33
2017-10-28T07:28:08.145Z,20.03
2017-10-28T07:30:36.455Z,15.63
2017-10-28T07:33:04.984Z,23.17
2017-10-28T07:35:33.557Z,28.57
2017-10-28T07:38:01.885Z,27.23
2017-10-28T07:40:30.303Z,17.03
2017-10-28T07:42:59.155Z,16.27
2017-10-28T07:45:27.467Z,15.70
2017-10-28T07:47:55.902Z,23.20
2017-10-28T07:50:24.375Z,16.67
2017-10-28T07:52:52.723Z,17.87
2017-10-28T07:55:21.167Z,32.77
2017-10-28T07:57:49.436Z,16.17
2017-10-28T08:00:17.757Z,20.10
2017-10-28T08:02:46.643Z,10.67
2017-10-28T08:05:14.944Z,14.13
2017-10-28T08:07:43.380Z,12.47
2017-10-28T08:10:11.787Z,12.40
2017-10-28T08:12:40.085Z,23.80
2017-10-28T08:15:08.389Z,17.47
2017-10-28T08:17:36.703Z,12.23
2017-10-28T08:20:05.227Z,27.80
2017-10-28T08:22:33.673Z,26.97
2017-10-28T08:25:02.155Z,14.40
2017-10-28T08:27:30.569Z,21.73
2017-10-28T08:29:59.411Z,28.50
2017-10-28T08:32:27.783Z,21.07
2017-10-28T08:34:56.171Z,16.30
2017-10-28T08:37:24.554Z,17.67
2017-10-28T08:39:52.893Z,21.77
2017-10-28T08:42:21.302Z,30.80
2017-10-28T08:44:49.753Z,23.13
2017-10-28T08:47:18.117Z,17.80
2017-10-28T08:49:46.471Z,23.40
2017-10-28T08:52:15.076Z,18.13
2017-10-28T08:54:43.752Z,34.37
2017-10-28T08:57:12.249Z,28.60
2017-10-28T08:59:40.859Z,17.93
2017-10-28T09:02:09.167Z,11.87
2017-10-28T09:04:37.640Z,18.93
2017-10-28T09:07:06.116Z,27.07
2017-10-28T09:09:34.468Z,13.37
2017-10-28T09:12:03.690Z,26.97
2017-10-28T09:14:32.028Z,26.27
2017-10-28T09:17:00.419Z,22.03
2017-10-28T09:19:28.753Z,19.80
2017-10-28T09:21:57.108Z,23.03
2017-10-28T09:24:25.432Z,13.43
2017-10-28T09:26:53.731Z,13.50
2017-10-28T09:29:22.024Z,22.23
2017-10-28T09:31:50.487Z,15.90
2017-10-28T09:34:19.083Z,19.83
2017-10-28T09:36:47.533Z,21.63
2017-10-28T09:39:15.903Z,19.47
2017-10-28T09:41:44.290Z,11.00
2017-10-28T09:44:12.680Z,18.17
2017-10-28T09:46:40.988Z,9.67
2017-10-28T09:49:09.283Z,13.90
2017-10-28T09:51:37.623Z,15.40
2017-10-28T09:54:05.981Z,15.23
2017-10-28T09:56:34.493Z,29.83
2017-10-28T09:59:02.969Z,17.77
2017-10-28T10:01:31.589Z,7.90
2017-10-28T10:03:59.911Z,7.03
2017-10-28T10:06:28.544Z,10.33
2017-10-28T10:08:56.899Z,8.23
2017-10-28T10:11:25.263Z,11.40
2017-10-28T10:13:53.563Z,8.93
2017-10-28T10:16:21.923Z,11.63
2017-10-28T10:18:50.363Z,10.23
2017-10-28T10:21:18.702Z,11.20
2017-10-28T10:23:47.045Z,13.93
2017-10-28T10:26:15.435Z,9.93
2017-10-28T10:28:44.285Z,12.57
2017-10-28T10:31:12.571Z,21.33
2017-10-28T10:33:40.910Z,10.97
2017-10-28T10:36:09.349Z,5.47
2017-10-28T10:38:37.713Z,16.27
2017-10-28T10:41:06.069Z,10.47
2017-10-28T10:43:34.555Z,12.83
2017-10-28T10:46:02.856Z,15.60
2017-10-28T10:48:31.215Z,6.50
2017-10-28T10:50:59.593Z,24.80
2017-10-28T10:53:28.092Z,8.87
2017-10-28T10:55:56.468Z,11.70
2017-10-28T10:58:24.751Z,11.33
2017-10-28T11:00:53.084Z,12.33
2017-10-28T11:03:21.475Z,20.97
2017-10-28T11:05:50.691Z,6.10
2017-10-28T11:08:19.197Z,11.27
2017-10-28T11:10:47.505Z,16.57
2017-10-28T11:13:16.132Z,15.57
2017-10-28T11:15:44.457Z,16.80
2017-10-28T11:18:12.808Z,7.73
2017-10-28T11:20:41.838Z,15.23
2017-10-28T11:23:12.193Z,13.70
2017-10-28T11:25:40.824Z,16.20
2017-10-28T11:28:09.132Z,16.73
2017-10-28T11:30:37.523Z,21.63
2017-10-28T11:33:05.822Z,25.03
2017-10-28T11:35:34.220Z,16.10
2017-10-28T11:38:02.564Z,9.23
2017-10-28T11:40:30.916Z,17.13
2017-10-28T11:42:59.172Z,16.20
2017-10-28T11:45:27.665Z,9.33
2017-10-28T11:47:55.990Z,16.00
2017-10-28T11:50:24.408Z,11.63
2017-10-28T11:52:52.692Z,13.13
2017-10-28T11:55:21.157Z,13.93
2017-10-28T11:57:49.636Z,7.53
2017-10-28T12:00:18.228Z,13.50
2017-10-28T12:02:46.575Z,15.07
2017-10-28T12:05:15.004Z,20.07
2017-10-28T12:07:43.340Z,12.43
2017-10-28T12:10:11.860Z,10.30
2017-10-28T12:12:40.202Z,14.13
2017-10-28T12:15:10.772Z,8.83
2017-10-28T12:17:39.089Z,18.07
2017-10-28T12:20:10.916Z,29.87
2017-10-28T12:22:39.828Z,9.67
2017-10-28T12:25:08.156Z,11.40
2017-10-28T12:27:37.072Z,7.90
2017-10-28T12:30:06.677Z,11.50
2017-10-28T12:32:36.323Z,7.83
2017-10-28T12:35:04.709Z,7.67
2017-10-28T12:37:33.083Z,9.67
2017-10-28T12:40:01.464Z,8.40
2017-10-28T12:42:29.964Z,8.57
2017-10-28T12:44:59.529Z,6.80
2017-10-28T12:47:27.936Z,7.77
2017-10-28T12:49:59.225Z,4.50
2017-10-28T12:52:27.810Z,8.70
2017-10-28T12:54:56.140Z,10.83
2017-10-28T12:57:24.951Z,7.83
2017-10-28T12:59:53.524Z,8.20
2017-10-28T13:02:21.935Z,5.30
2017-10-28T13:04:50.205Z,4.33
2017-10-28T13:07:18.666Z,7.37
2017-10-28T13:09:46.920Z,9.93
2017-10-28T13:12:15.536Z,7.60
2017-10-28T13:14:44.088Z,4.17
2017-10-28T13:17:12.437Z,12.90
2017-10-28T13:19:40.723Z,9.43
2017-10-28T13:22:09.053Z,9.23
2017-10-28T13:24:37.377Z,7.53
2017-10-28T13:27:05.809Z,8.03
2017-10-28T13:29:34.113Z,18.73
2017-10-28T13:32:02.475Z,8.23
2017-10-28T13:34:30.980Z,9.07
2017-10-28T13:36:59.348Z,8.03
2017-10-28T13:39:27.644Z,24.13
2017-10-28T13:41:56.072Z,6.60
2017-10-28T13:44:24.388Z,6.10
2017-10-28T13:46:53.219Z,6.40
2017-10-28T13:49:21.511Z,12.23
2017-10-28T13:51:49.899Z,5.03
2017-10-28T13:54:18.239Z,3.63
2017-10-28T13:56:46.585Z,12.80
2017-10-28T13:59:14.866Z,5.03
2017-10-28T14:01:43.259Z,3.13
2017-10-28T14:04:11.573Z,7.00
2017-10-28T14:06:39.931Z,9.10
2017-10-28T14:09:08.616Z,6.43
2017-10-28T14:11:37.116Z,8.40
2017-10-28T14:14:05.434Z,3.97
2017-10-28T14:16:33.784Z,10.63
2017-10-28T14:19:02.296Z,20.33
2017-10-28T14:21:30.740Z,10.37
2017-10-28T14:23:59.015Z,12.57
2017-10-28T14:26:27.348Z,7.23
2017-10-28T14:28:55.695Z,7.27
2017-10-28T14:31:24.049Z,6.23
2017-10-28T14:33:53.804Z,9.37
2017-10-28T14:36:22.581Z,16.00
2017-10-28T14:38:50.922Z,19.13
2017-10-28T14:41:19.264Z,10.40
2017-10-28T14:43:47.580Z,12.20
2017-10-28T14:46:15.891Z,11.13
2017-10-28T14:48:44.196Z,14.43
2017-10-28T14:51:12.516Z,29.80
2017-10-28T14:53:40.828Z,13.27
2017-10-28T14:56:09.275Z,14.53
2017-10-28T14:58:37.944Z,17.50
2017-10-28T15:01:06.448Z,13.10
2017-10-28T15:03:34.912Z,13.40
2017-10-28T15:06:03.439Z,7.00
2017-10-28T15:08:32.052Z,9.60
2017-10-28T15:11:00.352Z,12.50
2017-10-28T15:13:28.631Z,12.50
2017-10-28T15:15:57.391Z,10.53
2017-10-28T15:18:25.703Z,14.57
2017-10-28T15:20:54.761Z,13.97
2017-10-28T15:23:24.767Z,11.57
2017-10-28T15:25:53.292Z,13.13
2017-10-28T15:28:21.607Z,8.80
2017-10-28T15:30:49.957Z,6.93
2017-10-28T15:33:18.514Z,12.13
2017-10-28T15:35:47.056Z,12.10
2017-10-28T15:38:15.453Z,10.00
2017-10-28T15:40:44.276Z,6.57
2017-10-28T15:43:13.012Z,5.37
2017-10-28T15:45:41.352Z,7.40
2017-10-28T15:48:09.672Z,16.63
2017-10-28T15:50:40.404Z,4.47
2017-10-28T15:53:08.883Z,4.53
2017-10-28T15:55:37.312Z,5.53
2017-10-28T15:58:06.224Z,8.10
2017-10-28T16:00:36.086Z,6.13
2017-10-28T16:03:04.379Z,9.73
2017-10-28T16:05:32.976Z,6.23
2017-10-28T16:08:01.253Z,5.17
2017-10-28T16:10:30.004Z,2.90
2017-10-28T16:12:58.315Z,7.70
2017-10-28T16:15:27.120Z,2.83
2017-10-28T16:17:55.783Z,6.00
2017-10-28T16:20:24.127Z,4.33
2017-10-28T16:22:52.538Z,7.10
2017-10-28T16:25:20.949Z,10.13
2017-10-28T16:27:49.348Z,6.40
2017-10-28T16:30:17.677Z,10.27
2017-10-28T16:32:46.142Z,17.53
2017-10-28T16:35:15.328Z,9.97
2017-10-28T16:37:43.713Z,13.53
2017-10-28T16:40:12.049Z,10.50
2017-10-28T16:42:40.470Z,17.73
2017-10-28T16:45:08.819Z,24.67
2017-10-28T16:47:37.226Z,19.00
2017-10-28T16:50:05.736Z,17.93
2017-10-28T16:52:34.168Z,20.60
2017-10-28T16:55:03.642Z,15.17
2017-10-28T16:57:32.016Z,12.77
2017-10-28T17:00:00.428Z,19.00
2017-10-28T17:02:29.190Z,19.23
2017-10-28T17:04:57.451Z,13.83
2017-10-28T17:07:26.378Z,19.93
2017-10-28T17:09:55.761Z,11.80
2017-10-28T17:12:24.119Z,10.37
2017-10-28T17:14:53.119Z,15.13
2017-10-28T17:17:22.896Z,13.97
2017-10-28T17:19:51.337Z,13.00
2017-10-28T17:22:19.702Z,13.23
2017-10-28T17:24:48.765Z,11.93
2017-10-28T17:27:17.233Z,18.33
2017-10-28T17:29:47.692Z,42.13
2017-10-28T17:32:16.051Z,27.40
2017-10-28T17:34:44.419Z,32.13
2017-10-28T17:37:13.580Z,18.37
2017-10-28T17:39:43.196Z,17.20
2017-10-28T17:42:11.511Z,17.20
2017-10-28T17:44:40.076Z,14.27
2017-10-28T17:47:08.930Z,15.20
2017-10-28T17:49:37.221Z,12.30
2017-10-28T17:52:06.056Z,9.70
2017-10-28T17:54:35.572Z,13.23
2017-10-28T17:57:05.327Z,17.27
2017-10-28T17:59:35.201Z,15.60
2017-10-28T18:02:03.563Z,22.20
2017-10-28T18:04:31.982Z,16.23
2017-10-28T18:07:00.312Z,13.70
2017-10-28T18:09:28.752Z,17.80
2017-10-28T18:11:58.071Z,16.13
2017-10-28T18:14:26.696Z,14.00
2017-10-28T18:16:55.099Z,21.90
2017-10-28T18:19:24.455Z,10.37
2017-10-28T18:21:52.939Z,21.30
2017-10-28T18:24:21.804Z,15.93
2017-10-28T18:26:51.150Z,18.83
2017-10-28T18:29:19.867Z,15.33
2017-10-28T18:31:50.241Z,18.33
2017-10-28T18:34:19.675Z,13.20
2017-10-28T18:36:48.317Z,26.00
2017-10-28T18:39:18.975Z,21.40
2017-10-28T18:41:48.463Z,13.00
2017-10-28T18:44:16.862Z,21.20
2017-10-28T18:46:45.779Z,13.60
2017-10-28T18:49:14.932Z,24.30
2017-10-28T18:51:43.287Z,23.83
2017-10-28T18:54:12.649Z,11.77
2017-10-28T18:56:42.245Z,20.50
2017-10-28T18:59:10.515Z,12.90
2017-10-28T19:01:38.869Z,25.07
2017-10-28T19:04:07.353Z,16.77
2017-10-28T19:06:35.949Z,16.90
2017-10-28T19:09:04.388Z,23.43
2017-10-28T19:11:32.910Z,12.73
2017-10-28T19:14:01.239Z,21.97
2017-10-28T19:16:29.664Z,20.13
2017-10-28T19:18:57.967Z,20.03
2017-10-28T19:21:26.295Z,12.13
2017-10-28T19:23:54.668Z,9.83
2017-10-28T19:26:24.184Z,15.23
2017-10-28T19:28:52.684Z,8.80
2017-10-28T19:31:21.016Z,12.60
2017-10-28T19:33:49.312Z,12.10
2017-10-28T19:36:17.611Z,14.90
2017-10-28T19:38:46.667Z,6.50
2017-10-28T19:41:15.177Z,12.97
2017-10-28T19:43:43.441Z,10.17
2017-10-28T19:46:11.772Z,8.87
2017-10-28T19:48:40.689Z,8.23
2017-10-28T19:51:09.407Z,14.73
2017-10-28T19:53:38.196Z,9.97
2017-10-28T19:56:06.612Z,12.43
2017-10-28T19:58:35.577Z,15.37
2017-10-28T20:01:03.868Z,7.20
2017-10-28T20:03:32.569Z,8.30
2017-10-28T20:06:00.998Z,6.27
2017-10-28T20:08:29.298Z,18.47
2017-10-28T20:10:57.618Z,17.00
2017-10-28T20:13:25.914Z,9.30
2017-10-28T20:15:54.232Z,10.00
2017-10-28T20:18:22.695Z,6.20
2017-10-28T20:20:51.003Z,15.93
2017-10-28T20:23:19.284Z,8.50
2017-10-28T20:25:47.616Z,10.93
2017-10-28T20:28:15.931Z,10.90
2017-10-28T20:30:44.291Z,6.53
2017-10-28T20:33:12.636Z,8.13
2017-10-28T20:35:40.963Z,14.10
2017-10-28T20:38:09.299Z,11.40
2017-10-28T20:40:37.615Z,12.43
2017-10-28T20:43:05.965Z,11.67
2017-10-28T20:45:34.253Z,24.10
2017-10-28T20:48:02.720Z,11.63
2017-10-28T20:50:31.247Z,14.67
2017-10-28T20:52:59.560Z,11.90
2017-10-28T20:55:28.093Z,14.87
2017-10-28T20:57:56.855Z,11.30
2017-10-28T21:00:25.399Z,22.70
2017-10-28T21:02:54.384Z,10.80
2017-10-28T21:05:22.713Z,15.87
2017-10-28T21:07:51.185Z,9.70
2017-10-28T21:10:19.695Z,12.97
2017-10-28T21:12:48.292Z,19.20
2017-10-28T21:15:17.078Z,15.23
2017-10-28T21:17:45.495Z,7.33
2017-10-28T21:20:13.803Z,10.30
2017-10-28T21:22:42.139Z,21.20
2017-10-28T21:25:11.603Z,9.37
2017-10-28T21:27:39.880Z,20.00
2017-10-28T21:30:08.976Z,13.53
2017-10-28T21:32:37.891Z,13.33
2017-10-28T21:35:07.480Z,12.13
2017-10-28T21:37:37.915Z,9.20
2017-10-28T21:40:07.579Z,10.03
2017-10-28T21:42:36.587Z,6.00
2017-10-28T21:45:06.045Z,11.97
2017-10-28T21:47:34.444Z,10.60
2017-10-28T21:50:02.908Z,10.97
2017-10-28T21:52:31.572Z,12.80
2017-10-28T21:55:00.323Z,13.10
2017-10-28T21:57:30.442Z,6.60
2017-10-28T21:59:58.732Z,6.83
2017-10-28T22:02:27.699Z,9.53
2017-10-28T22:04:55.963Z,8.87
2017-10-28T22:07:24.267Z,10.33
2017-10-28T22:09:52.552Z,12.10
2017-10-28T22:12:21.054Z,13.80
2017-10-28T22:14:49.456Z,7.30
2017-10-28T22:17:17.974Z,8.20
2017-10-28T22:19:46.419Z,9.30
2017-10-28T22:22:14.745Z,13.77
2017-10-28T22:24:43.243Z,7.20
2017-10-28T22:27:11.563Z,5.73
2017-10-28T22:29:39.948Z,11.83
2017-10-28T22:32:10.704Z,7.63
2017-10-28T22:34:39.000Z,3.50
2017-10-28T22:37:07.280Z,6.60
2017-10-28T22:39:36.184Z,5.37
2017-10-28T22:42:04.485Z,4.90
2017-10-28T22:44:32.893Z,4.27
2017-10-28T22:47:01.196Z,5.80
2017-10-28T22:49:29.867Z,3.47
2017-10-28T22:51:58.445Z,11.60
2017-10-28T22:54:26.738Z,4.67
2017-10-28T22:56:55.088Z,7.97
2017-10-28T22:59:23.355Z,7.70
2017-10-28T23:01:51.873Z,6.07
2017-10-28T23:04:20.232Z,4.37
2017-10-28T23:06:48.544Z,3.00
2017-10-28T23:09:16.824Z,4.50
2017-10-28T23:11:45.155Z,3.40
2017-10-28T23:14:13.599Z,7.60
2017-10-28T23:16:41.920Z,2.63
2017-10-28T23:19:10.379Z,2.97
2017-10-28T23:21:38.737Z,3.80
2017-10-28T23:24:07.061Z,2.93
2017-10-28T23:26:35.465Z,2.50
2017-10-28T23:29:03.935Z,1.70
2017-10-28T23:31:32.395Z,2.53
2017-10-28T23:34:00.859Z,2.90
2017-10-28T23:36:29.183Z,2.10
2017-10-28T23:38:57.645Z,3.30
2017-10-28T23:41:25.943Z,2.50
2017-10-28T23:43:54.244Z,2.60
2017-10-28T23:46:22.575Z,2.20
2017-10-28T23:48:50.920Z,4.47
2017-10-28T23:51:19.216Z,2.63
2017-10-28T23:53:47.513Z,1.90
2017-10-28T23:56:15.867Z,1.70
2017-10-28T23:58:44.160Z,2.97
